• Join FlightAware (Why Join?)
  • Login
  • US Flag 
11:39AM EDT


 

Airport Tracker/Info


-or-


 

Live Flight TrackerFlight Track Log ✈ RPA3381 ✈ 21-Jul-2014 ✈ KDCA - KHSV

Flight Track Log - Related Links

Times and Time Zones

All times are in EDT time to prevent confusion due to time zone crossing. See the RPA3381 flight status page for this flight to view local times or setup timezone preferences in your user account.

Time Position Orientation Groundspeed Altitude Reporting Facility
EDT Latitude Longitude Course Direction KTS MPH feet Rate Location/Type
09:01PM 38.8333 -77.0333 247° West 153 176 1,100  Level Potomac TRACON
09:02PM 38.7833 -77.0333 180° South 201 231 2,700 1,860 Climbing Potomac TRACON
09:03PM 38.7500 -77.1167 243° Southwest 277 319 4,900 2,520 Climbing Potomac TRACON
09:04PM 38.7333 -77.2000 256° West 281 323 7,800 2,760 Climbing Potomac TRACON
09:05PM 38.7167 -77.3000 258° West 291 335 10,500 1,860 Climbing Potomac TRACON
09:06PM 38.5914 -77.5425 247° West  Level FlightAware Approximate
09:06PM 38.6833 -77.4000 247° West 336 387 11,600  Level Potomac TRACON
09:08PM 38.5669 -77.6178 236° Southwest 356 410 15,800 2,040 Climbing Washington Center
09:09PM 38.5067 -77.7300 236° Southwest 374 430 17,800 1,860 Climbing Washington Center
09:10PM 38.4461 -77.8450 236° Southwest 385 443 19,500 1,680 Climbing Washington Center
09:11PM 38.3856 -77.9650 237° Southwest 397 457 21,300 1,680 Climbing Washington Center
09:12PM 38.3306 -78.0956 242° Southwest 407 468 22,900 1,320 Climbing Washington Center
09:13PM 38.2756 -78.2286 242° Southwest 418 481 24,000 540 Climbing Washington Center
09:14PM 38.2186 -78.3614 241° Southwest 430 495 24,000  Level Washington Center
09:15PM 38.1633 -78.4942 242° Southwest 430 495 24,000  Level Washington Center
09:16PM 38.1097 -78.6344 244° Southwest 430 495 24,000  Level Washington Center
09:17PM 38.0519 -78.7694 242° Southwest 430 495 24,000  Level Washington Center
09:18PM 37.9942 -78.9039 241° Southwest 430 495 24,000  Level Washington Center
09:19PM 37.9339 -79.0381 240° Southwest 435 501 24,000  Level Washington Center
09:20PM 37.8736 -79.1722 240° Southwest 435 501 24,000  Level Washington Center
09:21PM 37.8072 -79.3031 237° Southwest 435 501 24,000  Level Washington Center
09:22PM 37.7492 -79.4211 238° Southwest 441 507 24,000  Level Washington Center
09:23PM 37.6736 -79.5642 236° Southwest 441 507 24,000  Level Washington Center
09:24PM 37.6156 -79.6819 238° Southwest 447 514 24,000  Level Washington Center
09:25PM 37.5439 -79.8247 238° Southwest 447 514 24,000  Level Washington Center
09:26PM 37.4808 -79.9494 238° Southwest 459 528 24,000  Level Washington Center
09:27PM 37.4133 -80.0814 237° Southwest 459 528 24,000  Level Washington Center
09:28PM 37.3200 -80.2603 237° Southwest 456 525 24,000  Level Atlanta Center
09:29PM 37.2531 -80.3886 237° Southwest 456 525 24,000  Level Atlanta Center
09:30PM 37.1858 -80.5192 237° Southwest 451 519 24,000  Level Atlanta Center
09:31PM 37.1206 -80.6447 237° Southwest 451 519 24,000  Level Atlanta Center
09:32PM 37.0597 -80.7797 241° Southwest 445 512 24,000  Level Atlanta Center
09:33PM 37.0114 -80.9222 247° West 445 512 24,000  Level Atlanta Center
09:34PM 36.9606 -81.0619 246° West 445 512 24,000  Level Atlanta Center
09:35PM 36.9097 -81.2014 246° West 445 512 24,000  Level Atlanta Center
09:36PM 36.8586 -81.3381 245° Southwest 445 512 24,000  Level Atlanta Center
09:37PM 36.8094 -81.4772 246° West 445 512 24,000  Level Atlanta Center
09:38PM 36.7664 -81.6133 248° West 439 505 24,000  Level Atlanta Center
09:39PM 36.7189 -81.7442 246° West 428 493 24,000  Level Atlanta Center
09:40PM 36.6731 -81.8672 245° Southwest 408 470 24,000  Level Atlanta Center
09:41PM 36.6272 -81.9925 246° West 401 461 24,000  Level Atlanta Center
09:42PM 36.5772 -82.1231 245° Southwest 412 474 24,000  Level Atlanta Center
09:43PM 36.5272 -82.2561 245° Southwest 417 480 24,000  Level Atlanta Center
09:44PM 36.4828 -82.3758 245° Southwest 422 486 24,000  Level Atlanta Center
09:45PM 36.4244 -82.5319 245° Southwest 422 486 24,000  Level Atlanta Center
09:46PM 36.3739 -82.6644 245° Southwest 422 486 24,000  Level Atlanta Center
09:48PM 36.2764 -82.9314 246° West 422 486 24,000  Level Atlanta Center
09:49PM 36.2233 -83.0633 244° Southwest 422 486 24,000  Level Atlanta Center
09:50PM 36.1742 -83.1925 245° Southwest 422 486 24,000  Level Atlanta Center
09:51PM 36.1250 -83.3242 245° Southwest 422 486 24,000  Level Atlanta Center
09:52PM 36.0736 -83.4556 244° Southwest 422 486 24,000  Level Atlanta Center
09:53PM 36.0261 -83.5767 244° Southwest 422 486 24,000 -240 Level Atlanta Center
09:54PM 35.9786 -83.7078 246° West 422 486 23,600 -720 Descending Atlanta Center
09:55PM 35.9267 -83.8386 244° Southwest 422 486 22,600 -840 Descending Atlanta Center
09:56PM 35.8767 -83.9669 244° Southwest 422 486 22,000 -300 Descending Atlanta Center
09:57PM 35.8289 -84.0925 245° Southwest 422 486 22,000  Level Atlanta Center
09:58PM 35.7767 -84.2256 244° Southwest 422 486 22,000  Level Atlanta Center
09:59PM 35.7242 -84.3533 243° Southwest 422 486 22,000  Level Atlanta Center
10:00PM 35.6758 -84.4836 245° Southwest 422 486 22,000  Level Atlanta Center
10:01PM 35.6211 -84.6111 242° Southwest 422 486 22,000  Level Atlanta Center
10:02PM 35.5703 -84.7408 244° Southwest 422 486 22,000  Level Atlanta Center
10:04PM 35.4769 -84.9797 244° Southwest 422 486 22,000  Level Memphis Center
10:05PM 35.4247 -85.1097 244° Southwest 422 486 22,000  Level Memphis Center
10:06PM 35.3719 -85.2408 244° Southwest 423 487 22,000 -300 Level Memphis Center
10:07PM 35.3189 -85.3711 244° Southwest 423 487 21,500 -780 Descending Memphis Center
10:08PM 35.2669 -85.4994 244° Southwest 423 487 20,500 -1,020 Descending Memphis Center
10:09PM 35.2144 -85.6269 243° Southwest 422 486 19,500 -1,020 Descending Memphis Center
10:10PM 35.1642 -85.7519 244° Southwest 415 478 18,500 -1,380 Descending Memphis Center
10:11PM 35.1036 -85.8972 243° Southwest 405 466 16,700 -1,860 Descending Memphis Center
10:12PM 35.0556 -86.0161 244° Southwest 395 455 14,700 -1,980 Descending Memphis Center
10:13PM 35.0083 -86.1278 243° Southwest 377 434 12,700 -1,860 Descending Memphis Center
10:14PM 34.9656 -86.2319 243° Southwest 364 419 10,900 -1,500 Descending Memphis Center
10:16PM 34.9250 -86.3289 243° Southwest 332 382 9,700 -1,260 Descending Memphis Center
10:17PM 34.8903 -86.4211 245° Southwest 309 356 8,400 -1,500 Descending Memphis Center
10:18PM 34.8753 -86.5194 259° West 297 342 6,700 -1,620 Descending Memphis Center
10:19PM 34.8583 -86.6133 258° West 291 335 5,200 -1,320 Descending Memphis Center
10:20PM 34.8394 -86.7150 257° West 271 312 4,100 -900 Descending Memphis Center
10:21PM 34.8175 -86.7747 246° West 230 265 3,400 -720 Descending Memphis Center
10:22PM 34.7625 -86.7794 184° South 215 247 2,700 -840 Descending Memphis Center
10:23PM 34.7131 -86.7803 181° South 195 224 1,800 -840 Descending Memphis Center
10:24PM 34.6744 -86.7814 181° South 169 194 1,100 -600 Descending Memphis Center
10:25PM 34.6319 -86.7828 182° South 155 178 700 -420 Descending Memphis Center
10:27PM 34.6333 -86.7667 North  Level FlightAware Approximate
10:34PM 34.6372 -86.7751 North  Level Estimated